createdAt,value
2023-04-03T00:01:05.667Z,-0.10
2023-04-03T00:03:34.042Z,0.00
2023-04-03T00:06:01.773Z,-0.10
2023-04-03T00:08:31.831Z,-0.10
2023-04-03T00:10:59.507Z,-0.10
2023-04-03T00:13:29.277Z,-0.10
2023-04-03T00:15:56.575Z,-0.10
2023-04-03T00:18:24.212Z,-0.10
2023-04-03T00:20:51.509Z,-0.20
2023-04-03T00:23:18.808Z,-0.20
2023-04-03T00:25:45.874Z,-0.20
2023-04-03T00:28:13.574Z,-0.20
2023-04-03T00:30:41.130Z,-0.20
2023-04-03T00:33:08.570Z,-0.20
2023-04-03T00:35:36.165Z,-0.20
2023-04-03T00:38:03.554Z,-0.30
2023-04-03T00:40:38.596Z,-0.30
2023-04-03T00:43:20.548Z,-0.30
2023-04-03T00:45:50.379Z,-0.30
2023-04-03T00:48:45.846Z,-0.30
2023-04-03T00:51:23.619Z,-0.40
2023-04-03T00:53:56.443Z,-0.40
2023-04-03T00:56:27.989Z,-0.40
2023-04-03T00:59:06.545Z,-0.40
2023-04-03T01:01:36.709Z,-0.50
2023-04-03T01:04:06.878Z,-0.50
2023-04-03T01:06:38.163Z,-0.50
2023-04-03T01:09:08.515Z,-0.60
2023-04-03T01:11:35.629Z,-0.50
2023-04-03T01:14:03.385Z,-0.50
2023-04-03T01:16:32.878Z,-0.50
2023-04-03T01:19:02.368Z,-0.50
2023-04-03T01:21:59.579Z,-0.50
2023-04-03T01:24:36.684Z,-0.50
2023-04-03T01:27:08.786Z,-0.50
2023-04-03T01:29:36.711Z,-0.50
2023-04-03T01:32:04.636Z,-0.50
2023-04-03T01:34:32.411Z,-0.50
2023-04-03T01:37:00.254Z,-0.50
2023-04-03T01:39:27.707Z,-0.60
2023-04-03T01:41:54.967Z,-0.60
2023-04-03T01:44:32.656Z,-0.60
2023-04-03T01:47:00.396Z,-0.60
2023-04-03T01:49:29.448Z,-0.60
2023-04-03T01:51:57.351Z,-0.60
2023-04-03T01:54:25.127Z,-0.70
2023-04-03T01:56:53.130Z,-0.70
2023-04-03T01:59:21.713Z,-0.70
2023-04-03T02:01:48.887Z,-0.70
2023-04-03T02:04:16.414Z,-0.70
2023-04-03T02:06:43.501Z,-0.70
2023-04-03T02:09:10.972Z,-0.80
2023-04-03T02:11:37.957Z,-0.70
2023-04-03T02:14:05.535Z,-0.70
2023-04-03T02:16:32.742Z,-0.80
2023-04-03T02:19:00.299Z,-0.80
2023-04-03T02:21:27.360Z,-0.80
2023-04-03T02:23:54.944Z,-0.80
2023-04-03T02:26:22.087Z,-0.80
2023-04-03T02:28:49.586Z,-0.80
2023-04-03T02:31:16.815Z,-0.80
2023-04-03T02:33:46.543Z,-0.80
2023-04-03T02:36:15.738Z,-0.80
2023-04-03T02:38:46.619Z,-0.80
2023-04-03T02:41:14.335Z,-0.80
2023-04-03T02:43:41.631Z,-0.90
2023-04-03T02:46:10.415Z,-0.90
2023-04-03T02:48:38.150Z,-1.00
2023-04-03T02:51:05.447Z,-1.00
2023-04-03T02:53:32.886Z,-1.00
2023-04-03T02:56:05.512Z,-0.90
2023-04-03T02:58:32.892Z,-1.00
2023-04-03T03:01:00.974Z,-0.90
2023-04-03T03:03:28.249Z,-1.00
2023-04-03T03:06:08.604Z,-1.00
2023-04-03T03:08:36.575Z,-1.00
2023-04-03T03:11:04.902Z,-1.00
2023-04-03T03:13:32.798Z,-1.00
2023-04-03T03:16:00.546Z,-1.10
2023-04-03T03:18:27.909Z,-1.10
2023-04-03T03:20:57.025Z,-1.10
2023-04-03T03:23:26.300Z,-1.20
2023-04-03T03:26:02.317Z,-1.20
2023-04-03T03:28:29.654Z,-1.20
2023-04-03T03:30:57.829Z,-1.20
2023-04-03T03:33:26.284Z,-1.20
2023-04-03T03:35:54.527Z,-1.20
2023-04-03T03:38:22.528Z,-1.20
2023-04-03T03:40:51.208Z,-1.20
2023-04-03T03:43:21.492Z,-1.30
2023-04-03T03:45:54.352Z,-1.30
2023-04-03T03:48:24.342Z,-1.30
2023-04-03T03:50:51.634Z,-1.20
2023-04-03T03:53:21.690Z,-1.20
2023-04-03T03:55:52.012Z,-1.30
2023-04-03T03:58:21.780Z,-1.20
2023-04-03T04:00:48.842Z,-1.30
2023-04-03T04:03:16.577Z,-1.30
2023-04-03T04:05:46.242Z,-1.30
2023-04-03T04:08:14.114Z,-1.30
2023-04-03T04:10:41.451Z,-1.20
2023-04-03T04:13:09.885Z,-1.20
2023-04-03T04:15:37.211Z,-1.30
2023-04-03T04:18:05.644Z,-1.30
2023-04-03T04:20:33.364Z,-1.20
2023-04-03T04:23:00.823Z,-1.20
2023-04-03T04:25:29.326Z,-1.10
2023-04-03T04:27:56.952Z,-0.60
2023-04-03T04:30:24.209Z,-0.10
2023-04-03T04:32:52.282Z,0.40
2023-04-03T04:35:19.448Z,0.90
2023-04-03T04:37:49.760Z,1.30
2023-04-03T04:40:17.675Z,1.70
2023-04-03T04:42:45.455Z,2.40
2023-04-03T04:45:12.916Z,3.20
2023-04-03T04:47:43.044Z,4.10
2023-04-03T04:50:11.410Z,4.80
2023-04-03T04:52:39.349Z,5.70
2023-04-03T04:55:08.393Z,6.60
2023-04-03T04:57:38.018Z,7.50
2023-04-03T05:00:06.089Z,8.50
2023-04-03T05:02:34.115Z,9.00
2023-04-03T05:05:03.708Z,9.80
2023-04-03T05:07:32.950Z,10.20
2023-04-03T05:10:04.577Z,10.80
2023-04-03T05:12:33.465Z,11.10
2023-04-03T05:15:03.535Z,10.80
2023-04-03T05:17:32.301Z,11.30
2023-04-03T05:19:59.780Z,11.90
2023-04-03T05:22:28.835Z,12.60
2023-04-03T05:25:00.929Z,13.20
2023-04-03T05:27:31.552Z,13.20
2023-04-03T05:30:00.709Z,13.40
2023-04-03T05:32:28.707Z,13.50
2023-04-03T05:35:11.151Z,14.00
2023-04-03T05:37:39.426Z,15.00
2023-04-03T05:40:08.003Z,15.10
2023-04-03T05:42:36.111Z,14.80
2023-04-03T05:45:03.609Z,14.50
2023-04-03T05:47:31.748Z,15.30
2023-04-03T05:49:59.432Z,15.00
2023-04-03T05:52:37.831Z,14.90
2023-04-03T05:55:05.733Z,15.20
2023-04-03T05:57:35.692Z,15.70
2023-04-03T06:00:07.833Z,16.90
2023-04-03T06:02:42.872Z,16.40
2023-04-03T06:05:15.500Z,15.40
2023-04-03T06:07:43.482Z,15.90
2023-04-03T06:10:13.676Z,15.70
2023-04-03T06:12:41.489Z,17.10
2023-04-03T06:15:11.026Z,17.10
2023-04-03T06:17:38.809Z,15.70
2023-04-03T06:20:06.746Z,16.60
2023-04-03T06:22:34.739Z,16.00
2023-04-03T06:25:03.023Z,15.90
2023-04-03T06:27:30.321Z,15.90
2023-04-03T06:29:57.447Z,16.10
2023-04-03T06:32:24.707Z,15.80
2023-04-03T06:34:52.464Z,15.10
2023-04-03T06:37:23.081Z,14.20
2023-04-03T06:39:52.397Z,13.00
2023-04-03T06:42:19.721Z,12.50
2023-04-03T06:44:56.228Z,12.10
2023-04-03T06:47:23.636Z,12.30
2023-04-03T06:49:50.704Z,12.30
2023-04-03T06:52:18.271Z,11.50
2023-04-03T06:54:45.850Z,9.20
2023-04-03T06:57:13.204Z,8.10
2023-04-03T06:59:41.268Z,7.00
2023-04-03T07:02:12.545Z,6.50
2023-04-03T07:04:42.502Z,6.00
2023-04-03T07:07:09.844Z,5.60
2023-04-03T07:09:37.164Z,5.10
2023-04-03T07:12:04.699Z,5.00
2023-04-03T07:14:31.843Z,4.50
2023-04-03T07:16:59.424Z,4.40
2023-04-03T07:19:28.945Z,4.70
2023-04-03T07:21:56.668Z,4.50
2023-04-03T07:24:23.991Z,4.30
2023-04-03T07:26:52.597Z,4.20
2023-04-03T07:29:22.515Z,4.10
2023-04-03T07:31:50.411Z,4.30
2023-04-03T07:34:17.507Z,4.30
2023-04-03T07:36:44.792Z,4.20
2023-04-03T07:39:12.170Z,4.00
2023-04-03T07:41:40.931Z,3.90
2023-04-03T07:44:10.802Z,3.90
2023-04-03T07:46:38.999Z,4.10
2023-04-03T07:49:06.056Z,4.20
2023-04-03T07:51:33.709Z,4.20
2023-04-03T07:54:00.864Z,4.20
2023-04-03T07:56:28.829Z,3.90
2023-04-03T07:58:56.407Z,3.90
2023-04-03T08:01:23.700Z,4.20
2023-04-03T08:03:51.825Z,4.10
2023-04-03T08:06:29.418Z,4.20
2023-04-03T08:09:05.527Z,4.20
2023-04-03T08:11:33.204Z,4.20
2023-04-03T08:14:00.274Z,4.20
2023-04-03T08:16:27.977Z,4.20
2023-04-03T08:18:56.118Z,4.30
2023-04-03T08:21:23.544Z,4.40
2023-04-03T08:23:51.752Z,4.70
2023-04-03T08:26:23.808Z,4.70
2023-04-03T08:28:51.010Z,4.40
2023-04-03T08:31:20.910Z,4.20
2023-04-03T08:33:48.550Z,4.00
2023-04-03T08:36:24.685Z,4.10
2023-04-03T08:38:52.937Z,4.30
2023-04-03T08:41:32.710Z,4.30
2023-04-03T08:44:13.581Z,4.20
2023-04-03T08:47:07.523Z,4.40
2023-04-03T08:49:50.240Z,4.70
2023-04-03T08:52:35.155Z,4.60
2023-04-03T08:55:30.107Z,4.50
2023-04-03T08:58:04.305Z,4.40
2023-04-03T09:00:53.846Z,4.10
2023-04-03T09:03:24.071Z,4.00
2023-04-03T09:06:00.320Z,4.10
2023-04-03T09:08:34.425Z,4.20
2023-04-03T09:11:24.009Z,4.30
2023-04-03T09:13:56.529Z,4.50
2023-04-03T09:16:31.117Z,4.70
2023-04-03T09:19:24.436Z,4.90
2023-04-03T09:21:58.099Z,4.90
2023-04-03T09:24:27.443Z,4.90
2023-04-03T09:27:03.214Z,4.70
2023-04-03T09:29:31.331Z,4.50
2023-04-03T09:32:02.282Z,4.70
2023-04-03T09:34:32.996Z,4.80
2023-04-03T09:37:06.878Z,4.80
2023-04-03T09:39:54.159Z,4.70
2023-04-03T09:42:24.361Z,5.00
2023-04-03T09:44:58.789Z,5.30
2023-04-03T09:47:34.988Z,5.10
2023-04-03T09:50:18.424Z,4.90
2023-04-03T09:52:53.083Z,4.80
2023-04-03T09:55:27.823Z,4.80
2023-04-03T09:57:58.482Z,4.80
2023-04-03T10:00:36.822Z,4.70
2023-04-03T10:03:07.902Z,4.50
2023-04-03T10:05:42.584Z,4.40
2023-04-03T10:08:15.589Z,4.40
2023-04-03T10:10:46.571Z,4.30
2023-04-03T10:13:24.514Z,4.40
2023-04-03T10:16:02.964Z,4.60
2023-04-03T10:18:51.640Z,4.80
2023-04-03T10:21:51.188Z,5.00
2023-04-03T10:24:52.789Z,5.00
2023-04-03T10:27:27.446Z,4.90
2023-04-03T10:30:27.524Z,4.90
2023-04-03T10:33:13.287Z,4.60
2023-04-03T10:35:40.275Z,4.50
2023-04-03T10:38:10.745Z,4.60
2023-04-03T10:41:07.695Z,4.90
2023-04-03T10:43:50.834Z,5.00
2023-04-03T10:46:24.679Z,4.70
2023-04-03T10:49:16.865Z,4.80
2023-04-03T10:51:48.746Z,4.80
2023-04-03T10:54:16.082Z,4.90
2023-04-03T10:56:53.290Z,4.80
2023-04-03T10:59:46.320Z,4.90
2023-04-03T11:02:36.531Z,5.00
2023-04-03T11:05:34.173Z,5.20
2023-04-03T11:08:31.192Z,5.30
2023-04-03T11:11:02.547Z,5.60
2023-04-03T11:13:36.508Z,5.40
2023-04-03T11:16:06.645Z,5.20
2023-04-03T11:18:54.641Z,5.20
2023-04-03T11:21:30.712Z,5.40
2023-04-03T11:24:00.270Z,5.40
2023-04-03T11:26:37.760Z,5.60
2023-04-03T11:29:17.891Z,5.70
2023-04-03T11:32:31.453Z,5.60
2023-04-03T11:35:01.847Z,5.60
2023-04-03T11:37:49.437Z,5.80
2023-04-03T11:40:16.501Z,5.80
2023-04-03T11:42:48.438Z,5.80
2023-04-03T11:45:25.024Z,5.80
2023-04-03T11:47:54.653Z,5.70
2023-04-03T11:50:41.391Z,5.60
2023-04-03T11:53:09.047Z,5.50
2023-04-03T11:55:36.989Z,5.50
2023-04-03T11:58:14.523Z,5.80
2023-04-03T12:00:53.054Z,5.90
2023-04-03T12:03:30.365Z,6.00
2023-04-03T12:06:14.605Z,6.10
2023-04-03T12:08:48.170Z,6.20
2023-04-03T12:11:25.004Z,6.20
2023-04-03T12:13:56.329Z,6.10
2023-04-03T12:16:35.794Z,6.00
2023-04-03T12:19:15.667Z,6.20
2023-04-03T12:21:52.964Z,6.40
2023-04-03T12:24:31.051Z,6.40
2023-04-03T12:26:58.103Z,6.20
2023-04-03T12:29:30.254Z,6.10
2023-04-03T12:31:57.680Z,5.80
2023-04-03T12:34:51.832Z,5.90
2023-04-03T12:37:40.771Z,6.00
2023-04-03T12:40:26.305Z,6.40
2023-04-03T12:43:21.019Z,6.30
2023-04-03T12:46:04.800Z,6.40
2023-04-03T12:48:59.596Z,6.70
2023-04-03T12:51:36.848Z,6.80
2023-04-03T12:54:17.890Z,6.70
2023-04-03T12:56:45.568Z,6.40
2023-04-03T12:59:24.505Z,6.40
2023-04-03T13:02:00.571Z,6.60
2023-04-03T13:04:32.945Z,6.60
2023-04-03T13:07:00.497Z,6.40
2023-04-03T13:09:30.339Z,6.30
2023-04-03T13:11:59.180Z,6.40
2023-04-03T13:14:29.647Z,6.20
2023-04-03T13:17:17.769Z,6.20
2023-04-03T13:19:47.580Z,6.30
2023-04-03T13:22:27.394Z,6.40
2023-04-03T13:24:56.479Z,6.40
2023-04-03T13:27:24.384Z,6.50
2023-04-03T13:29:53.938Z,6.60
2023-04-03T13:32:25.809Z,6.60
2023-04-03T13:34:53.376Z,6.40
2023-04-03T13:37:25.069Z,6.30
2023-04-03T13:40:27.952Z,6.40
2023-04-03T13:43:06.875Z,6.40
2023-04-03T13:45:36.119Z,6.30
2023-04-03T13:48:22.112Z,6.00
2023-04-03T13:50:55.107Z,5.90
2023-04-03T13:53:23.111Z,6.00
2023-04-03T13:56:15.067Z,6.20
2023-04-03T13:58:58.960Z,6.20
2023-04-03T14:01:27.731Z,5.70
2023-04-03T14:03:55.018Z,5.60
2023-04-03T14:06:23.056Z,5.50
2023-04-03T14:08:50.864Z,5.40
2023-04-03T14:11:21.951Z,5.40
2023-04-03T14:13:49.814Z,5.50
2023-04-03T14:16:21.926Z,5.80
2023-04-03T14:18:50.757Z,5.80
2023-04-03T14:21:22.618Z,5.70
2023-04-03T14:23:53.561Z,5.60
2023-04-03T14:26:23.985Z,5.60
2023-04-03T14:28:54.332Z,5.70
2023-04-03T14:31:23.289Z,5.70
2023-04-03T14:33:50.938Z,5.60
2023-04-03T14:36:22.788Z,5.40
2023-04-03T14:38:51.382Z,5.20
2023-04-03T14:41:21.498Z,5.20
2023-04-03T14:43:49.998Z,5.30
2023-04-03T14:46:20.719Z,5.40
2023-04-03T14:48:49.059Z,5.40
2023-04-03T14:51:17.143Z,5.20
2023-04-03T14:53:45.995Z,5.30
2023-04-03T14:56:23.996Z,5.30
2023-04-03T14:58:56.176Z,5.20
2023-04-03T15:01:23.315Z,5.20
2023-04-03T15:03:53.192Z,4.90
2023-04-03T15:06:20.823Z,4.70
2023-04-03T15:08:49.198Z,4.60
2023-04-03T15:11:19.236Z,4.60
2023-04-03T15:13:47.697Z,4.70
2023-04-03T15:16:20.606Z,4.70
2023-04-03T15:18:48.663Z,4.80
2023-04-03T15:21:18.905Z,4.80
2023-04-03T15:23:46.416Z,4.80
2023-04-03T15:26:13.607Z,4.80
2023-04-03T15:28:43.414Z,4.80
2023-04-03T15:31:10.688Z,4.80
2023-04-03T15:33:38.601Z,4.70
2023-04-03T15:36:07.717Z,4.70
2023-04-03T15:38:39.510Z,4.70
2023-04-03T15:41:09.608Z,4.80
2023-04-03T15:43:36.982Z,4.70
2023-04-03T15:46:07.228Z,4.50
2023-04-03T15:48:37.213Z,4.50
2023-04-03T15:51:04.457Z,4.60
2023-04-03T15:53:31.915Z,4.50
2023-04-03T15:55:58.997Z,4.40
2023-04-03T15:58:26.578Z,4.40
2023-04-03T16:00:53.884Z,4.30
2023-04-03T16:03:25.365Z,4.20
2023-04-03T16:05:52.947Z,4.10
2023-04-03T16:08:20.947Z,4.10
2023-04-03T16:10:48.039Z,4.20
2023-04-03T16:13:16.264Z,4.10
2023-04-03T16:15:44.027Z,4.10
2023-04-03T16:18:11.623Z,4.00
2023-04-03T16:20:38.919Z,4.00
2023-04-03T16:23:06.563Z,3.90
2023-04-03T16:25:34.080Z,3.80
2023-04-03T16:28:02.038Z,3.80
2023-04-03T16:30:29.299Z,3.70
2023-04-03T16:32:58.094Z,3.60
2023-04-03T16:35:25.382Z,3.60
2023-04-03T16:37:52.954Z,3.50
2023-04-03T16:40:20.356Z,3.50
2023-04-03T16:42:47.746Z,3.40
2023-04-03T16:45:14.953Z,3.40
2023-04-03T16:47:43.040Z,3.30
2023-04-03T16:50:11.693Z,3.30
2023-04-03T16:52:39.421Z,3.30
2023-04-03T16:55:07.310Z,3.30
2023-04-03T16:57:34.713Z,3.30
2023-04-03T17:00:01.909Z,3.30
2023-04-03T17:02:30.277Z,3.30
2023-04-03T17:04:57.609Z,3.30
2023-04-03T17:07:26.187Z,3.40
2023-04-03T17:09:54.860Z,3.40
2023-04-03T17:12:22.514Z,3.30
2023-04-03T17:14:49.675Z,3.40
2023-04-03T17:17:22.222Z,3.30
2023-04-03T17:19:50.077Z,3.20
2023-04-03T17:22:20.670Z,3.20
2023-04-03T17:24:47.956Z,3.10
2023-04-03T17:27:15.599Z,3.10
2023-04-03T17:29:42.725Z,2.90
2023-04-03T17:32:10.351Z,2.90
2023-04-03T17:34:37.741Z,2.90
2023-04-03T17:37:05.623Z,2.90
2023-04-03T17:39:32.639Z,2.90
2023-04-03T17:42:01.470Z,2.90
2023-04-03T17:44:28.502Z,2.80
2023-04-03T17:46:56.122Z,2.80
2023-04-03T17:49:23.860Z,2.80
2023-04-03T17:51:51.307Z,2.70
2023-04-03T17:54:18.581Z,2.50
2023-04-03T17:56:48.284Z,2.30
2023-04-03T17:59:17.428Z,2.30
2023-04-03T18:01:46.973Z,2.20
2023-04-03T18:04:17.156Z,2.20
2023-04-03T18:06:48.223Z,2.20
2023-04-03T18:09:19.868Z,2.20
2023-04-03T18:11:48.765Z,2.30
2023-04-03T18:14:20.346Z,2.30
2023-04-03T18:16:48.213Z,2.30
2023-04-03T18:21:47.934Z,2.10
2023-04-03T18:24:17.950Z,2.00
2023-04-03T18:26:49.705Z,2.00
2023-04-03T18:29:17.156Z,1.90
2023-04-03T18:31:49.185Z,1.90
2023-04-03T18:34:19.398Z,2.00
2023-04-03T18:36:47.607Z,2.00
2023-04-03T18:39:15.208Z,2.00
2023-04-03T18:41:43.104Z,2.10
2023-04-03T18:44:14.070Z,2.10
2023-04-03T18:46:41.958Z,2.10
2023-04-03T18:49:12.547Z,2.00
2023-04-03T18:51:40.117Z,2.00
2023-04-03T18:54:09.745Z,2.00
2023-04-03T18:56:38.068Z,2.00
2023-04-03T18:59:05.739Z,1.90
2023-04-03T19:01:34.920Z,1.70
2023-04-03T19:04:04.032Z,1.60
2023-04-03T19:06:33.302Z,1.50
2023-04-03T19:09:05.856Z,1.50
2023-04-03T19:11:34.954Z,1.50
2023-04-03T19:14:14.255Z,1.50
2023-04-03T19:16:46.709Z,1.50
2023-04-03T19:19:14.288Z,1.40
2023-04-03T19:21:44.263Z,1.40
2023-04-03T19:24:12.770Z,1.40
2023-04-03T19:26:42.247Z,1.30
2023-04-03T19:29:09.733Z,1.30
2023-04-03T19:31:40.549Z,1.30
2023-04-03T19:34:08.384Z,1.30
2023-04-03T19:36:39.429Z,1.30
2023-04-03T19:39:06.521Z,1.30
2023-04-03T19:41:38.077Z,1.30
2023-04-03T19:44:07.151Z,1.30
2023-04-03T19:46:36.365Z,1.30
2023-04-03T19:49:03.865Z,1.30
2023-04-03T19:51:31.603Z,1.30
2023-04-03T19:53:59.082Z,1.30
2023-04-03T19:56:27.160Z,1.30
2023-04-03T19:58:57.062Z,1.30
2023-04-03T20:01:30.851Z,1.20
2023-04-03T20:03:58.049Z,1.20
2023-04-03T20:06:26.229Z,1.10
2023-04-03T20:08:53.777Z,1.00
2023-04-03T20:11:21.346Z,1.00
2023-04-03T20:13:52.398Z,0.90
2023-04-03T20:16:22.495Z,0.80
2023-04-03T20:18:52.264Z,0.80
2023-04-03T20:21:36.383Z,0.70
2023-04-03T20:24:06.130Z,0.70
2023-04-03T20:26:37.309Z,0.60
2023-04-03T20:29:04.595Z,0.60
2023-04-03T20:31:32.861Z,0.60
2023-04-03T20:33:59.970Z,0.60
2023-04-03T20:36:28.906Z,0.50
2023-04-03T20:38:56.376Z,0.50
2023-04-03T20:41:23.843Z,0.40
2023-04-03T20:43:50.857Z,0.40
2023-04-03T20:46:20.287Z,0.40
2023-04-03T20:48:48.246Z,0.40
2023-04-03T20:51:18.824Z,0.40
2023-04-03T20:53:48.309Z,0.40
2023-04-03T20:56:18.372Z,0.30
2023-04-03T20:58:46.284Z,0.30
2023-04-03T21:01:23.882Z,0.30
2023-04-03T21:03:55.192Z,0.20
2023-04-03T21:07:00.102Z,0.20
2023-04-03T21:10:05.016Z,0.20
2023-04-03T21:13:09.892Z,0.20
2023-04-03T21:15:49.732Z,0.10
2023-04-03T21:18:40.218Z,0.10
2023-04-03T21:21:16.793Z,0.10
2023-04-03T21:23:46.261Z,0.10
2023-04-03T21:26:13.445Z,0.10
2023-04-03T21:28:42.663Z,0.10
2023-04-03T21:31:11.829Z,0.00
2023-04-03T21:33:39.675Z,0.00
2023-04-03T21:36:07.721Z,0.00
2023-04-03T21:38:38.184Z,0.00
2023-04-03T21:41:05.528Z,-0.10
2023-04-03T21:43:34.791Z,-0.10
2023-04-03T21:46:01.962Z,-0.10
2023-04-03T21:48:31.288Z,-0.10
2023-04-03T21:51:05.573Z,-0.10
2023-04-03T21:53:33.731Z,-0.10
2023-04-03T21:56:02.473Z,-0.20
2023-04-03T21:58:31.127Z,-0.20
2023-04-03T22:01:08.120Z,-0.20
2023-04-03T22:03:38.114Z,-0.20
2023-04-03T22:06:05.699Z,-0.30
2023-04-03T22:08:33.773Z,-0.30
2023-04-03T22:11:09.103Z,-0.30
2023-04-03T22:13:37.530Z,-0.40
2023-04-03T22:16:05.094Z,-0.40
2023-04-03T22:18:32.984Z,-0.40
2023-04-03T22:21:00.358Z,-0.40
2023-04-03T22:23:27.846Z,-0.40
2023-04-03T22:26:08.927Z,-0.50
2023-04-03T22:28:47.238Z,-0.50
2023-04-03T22:31:16.288Z,-0.50
2023-04-03T22:33:45.459Z,-0.50
2023-04-03T22:36:13.543Z,-0.60
2023-04-03T22:38:43.455Z,-0.60
2023-04-03T22:41:11.855Z,-0.60
2023-04-03T22:43:39.961Z,-0.60
2023-04-03T22:46:09.145Z,-0.70
2023-04-03T22:48:38.673Z,-0.70
2023-04-03T22:51:07.573Z,-0.70
2023-04-03T22:53:36.079Z,-0.70
2023-04-03T22:56:08.759Z,-0.80
2023-04-03T22:58:36.799Z,-0.80
2023-04-03T23:01:09.448Z,-0.80
2023-04-03T23:03:38.616Z,-0.80
2023-04-03T23:06:06.676Z,-0.90
2023-04-03T23:08:35.151Z,-0.90
2023-04-03T23:11:02.512Z,-0.90
2023-04-03T23:13:30.006Z,-1.00
2023-04-03T23:15:58.763Z,-1.00
2023-04-03T23:18:29.532Z,-1.00
2023-04-03T23:20:58.781Z,-1.00
2023-04-03T23:23:26.418Z,-1.00
2023-04-03T23:25:53.864Z,-1.00
2023-04-03T23:28:21.606Z,-1.10
2023-04-03T23:30:49.250Z,-1.10
2023-04-03T23:33:16.616Z,-1.10
2023-04-03T23:35:48.914Z,-1.10
2023-04-03T23:38:16.468Z,-1.10
2023-04-03T23:40:44.713Z,-1.10
2023-04-03T23:43:12.694Z,-1.20
2023-04-03T23:45:40.255Z,-1.20
2023-04-03T23:48:07.740Z,-1.10
2023-04-03T23:50:34.765Z,-1.10
2023-04-03T23:53:02.425Z,-1.20
2023-04-03T23:55:29.667Z,-1.20
2023-04-03T23:57:57.040Z,-1.20
